createdAt,value
2018-05-12T00:02:19.422Z,15.49
2018-05-12T00:04:47.694Z,15.36
2018-05-12T00:07:16.082Z,15.30
2018-05-12T00:09:44.642Z,15.15
2018-05-12T00:12:13.228Z,15.25
2018-05-12T00:14:41.744Z,15.10
2018-05-12T00:17:09.894Z,15.07
2018-05-12T00:19:38.284Z,14.80
2018-05-12T00:22:06.635Z,15.08
2018-05-12T00:24:35.031Z,15.03
2018-05-12T00:27:03.708Z,15.06
2018-05-12T00:29:31.979Z,15.05
2018-05-12T00:32:00.286Z,15.09
2018-05-12T00:34:28.632Z,15.10
2018-05-12T00:36:57.030Z,15.13
2018-05-12T00:39:25.387Z,14.99
2018-05-12T00:41:53.594Z,15.06
2018-05-12T00:44:22.168Z,15.20
2018-05-12T00:46:50.613Z,15.20
2018-05-12T00:49:19.129Z,15.05
2018-05-12T00:51:47.595Z,14.79
2018-05-12T00:54:16.267Z,14.99
2018-05-12T00:56:44.713Z,14.94
2018-05-12T00:59:13.228Z,14.94
2018-05-12T01:01:41.910Z,14.97
2018-05-12T01:04:10.304Z,15.03
2018-05-12T01:06:38.577Z,15.02
2018-05-12T01:09:06.987Z,14.96
2018-05-12T01:11:35.553Z,14.85
2018-05-12T01:14:04.117Z,13.88
2018-05-12T01:16:32.763Z,14.72
2018-05-12T01:19:01.072Z,14.62
2018-05-12T01:21:29.518Z,14.76
2018-05-12T01:23:57.748Z,14.69
2018-05-12T01:26:25.966Z,14.36
2018-05-12T01:28:54.401Z,14.32
2018-05-12T01:31:22.761Z,13.81
2018-05-12T01:33:51.042Z,13.59
2018-05-12T01:36:19.718Z,13.86
2018-05-12T01:38:48.304Z,14.08
2018-05-12T01:41:16.701Z,13.46
2018-05-12T01:43:45.163Z,13.74
2018-05-12T01:46:13.847Z,14.21
2018-05-12T01:48:42.033Z,14.18
2018-05-12T01:51:10.490Z,13.70
2018-05-12T01:53:38.677Z,13.89
2018-05-12T01:56:07.047Z,14.02
2018-05-12T01:58:35.288Z,14.13
2018-05-12T02:01:03.716Z,14.30
2018-05-12T02:03:32.183Z,14.42
2018-05-12T02:06:00.485Z,14.48
2018-05-12T02:08:28.931Z,14.62
2018-05-12T02:10:57.125Z,14.41
2018-05-12T02:13:25.595Z,14.21
2018-05-12T02:15:54.269Z,13.80
2018-05-12T02:18:22.671Z,14.19
2018-05-12T02:20:51.173Z,14.24
2018-05-12T02:23:19.722Z,14.32
2018-05-12T02:25:47.907Z,14.36
2018-05-12T02:28:16.469Z,14.38
2018-05-12T02:30:44.940Z,13.36
2018-05-12T02:33:13.415Z,13.88
2018-05-12T02:35:41.939Z,14.03
2018-05-12T02:38:11.121Z,14.08
2018-05-12T02:40:39.558Z,14.20
2018-05-12T02:43:07.882Z,13.79
2018-05-12T02:45:36.445Z,13.17
2018-05-12T02:48:04.738Z,12.68
2018-05-12T02:50:33.312Z,12.18
2018-05-12T02:53:01.781Z,11.99
2018-05-12T02:55:30.086Z,12.43
2018-05-12T02:57:58.541Z,12.24
2018-05-12T03:00:26.961Z,12.72
2018-05-12T03:02:55.314Z,13.16
2018-05-12T03:05:23.779Z,13.41
2018-05-12T03:07:52.178Z,13.43
2018-05-12T03:10:20.751Z,13.08
2018-05-12T03:12:48.945Z,12.24
2018-05-12T03:15:17.401Z,12.13
2018-05-12T03:17:45.743Z,11.98
2018-05-12T03:20:14.053Z,11.92
2018-05-12T03:22:42.363Z,12.64
2018-05-12T03:25:10.822Z,12.01
2018-05-12T03:27:39.809Z,12.25
2018-05-12T03:30:08.269Z,12.86
2018-05-12T03:32:37.070Z,12.58
2018-05-12T03:35:05.441Z,12.55
2018-05-12T03:37:33.818Z,13.07
2018-05-12T03:40:02.298Z,13.47
2018-05-12T03:42:30.704Z,13.47
2018-05-12T03:44:59.369Z,13.70
2018-05-12T03:47:28.055Z,13.74
2018-05-12T03:49:56.598Z,13.31
2018-05-12T03:52:25.109Z,13.65
2018-05-12T03:54:53.496Z,12.85
2018-05-12T03:57:21.782Z,13.45
2018-05-12T03:59:50.106Z,13.85
2018-05-12T04:02:18.439Z,13.87
2018-05-12T04:04:59.747Z,13.99
2018-05-12T04:07:40.939Z,13.99
2018-05-12T04:10:18.099Z,14.05
2018-05-12T04:12:46.339Z,14.20
2018-05-12T04:15:14.913Z,14.26
2018-05-12T04:17:44.333Z,14.38
2018-05-12T04:20:12.807Z,14.46
2018-05-12T04:22:41.293Z,14.49
2018-05-12T04:25:09.769Z,14.56
2018-05-12T04:27:38.107Z,14.61
2018-05-12T04:30:06.826Z,14.59
2018-05-12T04:32:35.405Z,13.78
2018-05-12T04:35:04.243Z,14.11
2018-05-12T04:37:32.610Z,13.64
2018-05-12T04:40:00.961Z,14.01
2018-05-12T04:42:29.358Z,14.46
2018-05-12T04:44:58.113Z,14.58
2018-05-12T04:47:26.698Z,14.78
2018-05-12T04:49:55.381Z,14.67
2018-05-12T04:52:23.421Z,14.81
2018-05-12T04:54:51.737Z,14.87
2018-05-12T04:57:19.743Z,14.85
2018-05-12T04:59:47.711Z,14.36
2018-05-12T05:02:15.602Z,14.83
2018-05-12T05:04:43.571Z,14.98
2018-05-12T05:07:11.573Z,14.76
2018-05-12T05:09:39.586Z,14.96
2018-05-12T05:12:07.696Z,15.37
2018-05-12T05:14:35.617Z,15.11
2018-05-12T05:17:03.670Z,14.71
2018-05-12T05:19:31.796Z,14.97
2018-05-12T05:21:59.934Z,15.32
2018-05-12T05:24:27.964Z,15.32
2018-05-12T05:26:55.994Z,14.75
2018-05-12T05:29:23.954Z,14.74
2018-05-12T05:31:51.982Z,14.71
2018-05-12T05:34:19.916Z,14.61
2018-05-12T05:36:48.263Z,14.98
2018-05-12T05:39:16.199Z,15.12
2018-05-12T05:41:44.304Z,15.80
2018-05-12T05:44:12.274Z,16.22
2018-05-12T05:46:40.238Z,16.95
2018-05-12T05:49:08.243Z,15.62
2018-05-12T05:51:36.251Z,16.23
2018-05-12T05:54:04.183Z,16.16
2018-05-12T05:56:32.197Z,17.14
2018-05-12T05:59:00.105Z,16.18
2018-05-12T06:01:28.134Z,16.00
2018-05-12T06:03:56.144Z,16.66
2018-05-12T06:06:24.663Z,16.81
2018-05-12T06:08:52.689Z,17.71
2018-05-12T06:11:20.741Z,17.87
2018-05-12T06:13:48.798Z,17.58
2018-05-12T06:16:16.792Z,18.06
2018-05-12T06:18:44.783Z,18.61
2018-05-12T06:21:12.787Z,18.97
2018-05-12T06:23:41.199Z,19.26
2018-05-12T06:26:09.155Z,19.07
2018-05-12T06:28:37.250Z,19.41
2018-05-12T06:31:05.617Z,19.35
2018-05-12T06:33:33.685Z,19.19
2018-05-12T06:36:01.809Z,18.76
2018-05-12T06:38:30.317Z,18.78
2018-05-12T06:40:58.254Z,19.20
2018-05-12T06:43:26.293Z,19.82
2018-05-12T06:45:54.315Z,18.94
2018-05-12T06:48:22.385Z,19.87
2018-05-12T06:50:50.424Z,20.18
2018-05-12T06:53:18.477Z,19.83
2018-05-12T06:55:46.528Z,20.29
2018-05-12T06:58:14.569Z,21.58
2018-05-12T07:00:42.802Z,20.94
2018-05-12T07:03:10.942Z,20.92
2018-05-12T07:05:39.004Z,21.57
2018-05-12T07:08:06.990Z,21.31
2018-05-12T07:10:35.138Z,22.54
2018-05-12T07:13:03.126Z,23.07
2018-05-12T07:15:31.254Z,23.06
2018-05-12T07:17:59.385Z,23.35
2018-05-12T07:20:27.450Z,23.59
2018-05-12T07:22:55.498Z,22.78
2018-05-12T07:25:23.545Z,22.97
2018-05-12T07:27:51.576Z,23.55
2018-05-12T07:30:19.583Z,22.95
2018-05-12T07:32:47.598Z,23.20
2018-05-12T07:35:15.642Z,23.09
2018-05-12T07:37:43.635Z,23.80
2018-05-12T07:40:12.097Z,23.84
2018-05-12T07:42:40.131Z,23.33
2018-05-12T07:45:08.126Z,23.89
2018-05-12T07:47:36.114Z,23.53
2018-05-12T07:50:04.197Z,23.07
2018-05-12T07:52:32.153Z,22.84
2018-05-12T07:55:00.191Z,23.32
2018-05-12T07:57:28.204Z,24.34
2018-05-12T07:59:56.231Z,24.88
2018-05-12T08:02:24.352Z,24.85
2018-05-12T08:04:52.348Z,23.59
2018-05-12T08:07:20.338Z,23.12
2018-05-12T08:09:48.336Z,24.38
2018-05-12T08:12:16.454Z,24.89
2018-05-12T08:14:44.461Z,24.89
2018-05-12T08:17:12.437Z,24.68
2018-05-12T08:19:40.443Z,25.01
2018-05-12T08:22:08.488Z,26.26
2018-05-12T08:24:36.511Z,25.80
2018-05-12T08:27:04.557Z,26.21
2018-05-12T08:29:32.600Z,26.31
2018-05-12T08:32:00.661Z,27.57
2018-05-12T08:34:28.682Z,27.58
2018-05-12T08:36:56.682Z,27.01
2018-05-12T08:39:24.732Z,27.48
2018-05-12T08:41:53.089Z,26.17
2018-05-12T08:44:21.102Z,25.96
2018-05-12T08:46:49.120Z,26.27
2018-05-12T08:49:17.145Z,25.44
2018-05-12T08:51:45.156Z,25.21
2018-05-12T08:54:13.190Z,24.71
2018-05-12T08:56:41.213Z,25.62
2018-05-12T08:59:09.162Z,26.71
2018-05-12T09:01:37.176Z,25.92
2018-05-12T09:04:05.174Z,26.34
2018-05-12T09:06:33.126Z,25.93
2018-05-12T09:09:01.133Z,26.58
2018-05-12T09:11:29.185Z,26.92
2018-05-12T09:13:57.247Z,26.87
2018-05-12T09:16:25.259Z,27.52
2018-05-12T09:18:53.258Z,27.66
2018-05-12T09:21:21.243Z,28.45
2018-05-12T09:23:49.362Z,27.94
2018-05-12T09:26:17.387Z,28.65
2018-05-12T09:28:45.397Z,28.16
2018-05-12T09:31:13.397Z,25.57
2018-05-12T09:33:41.408Z,26.18
2018-05-12T09:36:09.540Z,26.88
2018-05-12T09:38:37.550Z,25.98
2018-05-12T09:41:05.544Z,25.64
2018-05-12T09:43:33.946Z,26.39
2018-05-12T09:46:01.931Z,27.40
2018-05-12T09:48:29.983Z,27.51
2018-05-12T09:50:57.967Z,28.17
2018-05-12T09:53:25.995Z,29.79
2018-05-12T09:55:54.027Z,30.09
2018-05-12T09:58:21.978Z,29.53
2018-05-12T10:00:49.945Z,29.12
2018-05-12T10:03:17.999Z,28.73
2018-05-12T10:05:45.974Z,28.46
2018-05-12T10:08:13.975Z,27.27
2018-05-12T10:10:42.050Z,28.50
2018-05-12T10:13:10.025Z,28.30
2018-05-12T10:15:38.133Z,27.80
2018-05-12T10:18:06.182Z,28.25
2018-05-12T10:20:34.210Z,28.70
2018-05-12T10:23:02.279Z,28.35
2018-05-12T10:25:30.530Z,27.90
2018-05-12T10:27:58.794Z,28.28
2018-05-12T10:30:27.059Z,29.04
2018-05-12T10:32:55.289Z,28.43
2018-05-12T10:35:23.554Z,28.71
2018-05-12T10:37:51.810Z,28.55
2018-05-12T10:40:20.056Z,28.53
2018-05-12T10:42:48.319Z,28.81
2018-05-12T10:45:17.025Z,28.44
2018-05-12T10:47:45.393Z,29.05
2018-05-12T10:50:13.588Z,29.20
2018-05-12T10:52:41.827Z,29.27
2018-05-12T10:55:10.115Z,29.89
2018-05-12T10:57:38.378Z,30.90
2018-05-12T11:00:06.652Z,31.38
2018-05-12T11:02:34.873Z,29.83
2018-05-12T11:05:03.731Z,30.67
2018-05-12T11:07:31.798Z,28.78
2018-05-12T11:09:59.897Z,28.48
2018-05-12T11:12:27.951Z,28.39
2018-05-12T11:14:56.220Z,29.13
2018-05-12T11:17:24.258Z,28.70
2018-05-12T11:19:52.362Z,28.75
2018-05-12T11:22:20.552Z,28.93
2018-05-12T11:24:48.528Z,28.99
2018-05-12T11:27:16.580Z,28.79
2018-05-12T11:29:44.583Z,28.99
2018-05-12T11:32:12.557Z,28.67
2018-05-12T11:34:40.603Z,29.41
2018-05-12T11:37:08.585Z,28.85
2018-05-12T11:39:36.545Z,28.92
2018-05-12T11:42:04.550Z,29.29
2018-05-12T11:44:32.534Z,29.74
2018-05-12T11:47:00.900Z,30.45
2018-05-12T11:49:28.907Z,30.58
2018-05-12T11:51:56.925Z,30.34
2018-05-12T11:54:24.912Z,29.61
2018-05-12T11:56:52.845Z,29.49
2018-05-12T11:59:20.764Z,29.19
2018-05-12T12:01:48.784Z,28.92
2018-05-12T12:04:16.881Z,28.79
2018-05-12T12:06:44.844Z,27.38
2018-05-12T12:09:12.945Z,27.18
2018-05-12T12:11:40.932Z,28.07
2018-05-12T12:14:08.969Z,28.93
2018-05-12T12:16:37.049Z,28.12
2018-05-12T12:19:05.053Z,27.89
2018-05-12T12:21:33.032Z,28.04
2018-05-12T12:24:01.030Z,28.00
2018-05-12T12:26:29.055Z,28.23
2018-05-12T12:28:57.051Z,28.46
2018-05-12T12:31:25.085Z,27.25
2018-05-12T12:33:53.117Z,27.73
2018-05-12T12:36:21.250Z,27.65
2018-05-12T12:38:49.392Z,27.88
2018-05-12T12:41:18.368Z,27.91
2018-05-12T12:43:46.772Z,28.92
2018-05-12T12:46:15.661Z,28.23
2018-05-12T12:48:44.376Z,28.14
2018-05-12T12:51:12.805Z,29.17
2018-05-12T12:53:40.948Z,28.71
2018-05-12T12:56:09.017Z,29.72
2018-05-12T12:58:37.069Z,29.57
2018-05-12T13:01:05.099Z,29.92
2018-05-12T13:03:33.197Z,29.66
2018-05-12T13:06:01.172Z,28.67
2018-05-12T13:08:29.186Z,29.49
2018-05-12T13:10:57.129Z,29.72
2018-05-12T13:13:25.178Z,28.74
2018-05-12T13:15:53.174Z,29.11
2018-05-12T13:18:21.078Z,29.11
2018-05-12T13:20:49.122Z,29.51
2018-05-12T13:23:17.111Z,29.21
2018-05-12T13:25:45.250Z,28.22
2018-05-12T13:28:13.257Z,28.93
2018-05-12T13:30:41.279Z,28.39
2018-05-12T13:33:09.247Z,27.62
2018-05-12T13:35:37.508Z,26.83
2018-05-12T13:38:05.622Z,27.36
2018-05-12T13:40:33.606Z,28.24
2018-05-12T13:43:01.730Z,27.82
2018-05-12T13:45:29.810Z,27.52
2018-05-12T13:47:57.835Z,27.65
2018-05-12T13:50:26.420Z,27.86
2018-05-12T13:52:54.422Z,28.37
2018-05-12T13:55:22.400Z,27.94
2018-05-12T13:57:50.412Z,27.56
2018-05-12T14:00:18.437Z,27.72
2018-05-12T14:02:46.453Z,29.08
2018-05-12T14:05:14.479Z,28.29
2018-05-12T14:07:42.853Z,28.17
2018-05-12T14:10:10.874Z,27.74
2018-05-12T14:12:38.803Z,28.51
2018-05-12T14:15:06.865Z,28.95
2018-05-12T14:17:35.339Z,27.52
2018-05-12T14:20:03.759Z,28.35
2018-05-12T14:22:32.259Z,29.14
2018-05-12T14:25:00.775Z,27.71
2018-05-12T14:27:28.921Z,27.21
2018-05-12T14:29:56.928Z,26.75
2018-05-12T14:32:25.060Z,26.83
2018-05-12T14:34:53.127Z,26.62
2018-05-12T14:37:21.214Z,25.81
2018-05-12T14:39:49.281Z,25.54
2018-05-12T14:42:17.318Z,25.48
2018-05-12T14:44:45.356Z,25.74
2018-05-12T14:47:13.426Z,25.70
2018-05-12T14:49:41.440Z,26.23
2018-05-12T14:52:09.975Z,26.28
2018-05-12T14:54:38.017Z,26.43
2018-05-12T14:57:06.049Z,26.12
2018-05-12T14:59:34.114Z,24.83
2018-05-12T15:02:02.066Z,25.18
2018-05-12T15:04:30.046Z,25.30
2018-05-12T15:06:58.089Z,25.07
2018-05-12T15:09:26.046Z,24.79
2018-05-12T15:11:54.067Z,24.54
2018-05-12T15:14:22.092Z,24.36
2018-05-12T15:16:50.116Z,24.38
2018-05-12T15:19:18.122Z,24.48
2018-05-12T15:21:46.101Z,24.54
2018-05-12T15:24:14.161Z,24.10
2018-05-12T15:26:42.216Z,24.00
2018-05-12T15:29:10.275Z,23.67
2018-05-12T15:31:38.371Z,23.54
2018-05-12T15:34:06.385Z,23.48
2018-05-12T15:36:34.391Z,23.68
2018-05-12T15:39:02.412Z,24.16
2018-05-12T15:41:30.581Z,24.14
2018-05-12T15:43:58.636Z,24.10
2018-05-12T15:46:26.704Z,24.01
2018-05-12T15:48:54.731Z,24.29
2018-05-12T15:51:22.743Z,24.49
2018-05-12T15:53:51.128Z,24.22
2018-05-12T15:56:19.093Z,23.64
2018-05-12T15:58:47.181Z,23.63
2018-05-12T16:01:15.169Z,23.92
2018-05-12T16:03:43.235Z,23.76
2018-05-12T16:06:11.288Z,23.89
2018-05-12T16:08:39.323Z,23.58
2018-05-12T16:11:07.310Z,22.86
2018-05-12T16:13:35.320Z,22.47
2018-05-12T16:16:03.377Z,22.09
2018-05-12T16:18:31.427Z,21.67
2018-05-12T16:20:59.457Z,21.23
2018-05-12T16:23:27.450Z,21.97
2018-05-12T16:25:55.522Z,22.12
2018-05-12T16:28:23.528Z,21.98
2018-05-12T16:30:51.496Z,22.00
2018-05-12T16:33:19.511Z,21.74
2018-05-12T16:35:47.508Z,21.87
2018-05-12T16:38:15.558Z,21.44
2018-05-12T16:40:43.578Z,21.73
2018-05-12T16:43:11.675Z,21.68
2018-05-12T16:45:39.689Z,22.08
2018-05-12T16:48:07.733Z,21.68
2018-05-12T16:50:35.763Z,21.28
2018-05-12T16:53:03.811Z,20.55
2018-05-12T16:55:32.088Z,20.97
2018-05-12T16:58:00.157Z,21.29
2018-05-12T17:00:28.160Z,20.47
2018-05-12T17:02:56.106Z,20.41
2018-05-12T17:05:24.120Z,20.19
2018-05-12T17:07:52.146Z,20.02
2018-05-12T17:10:20.193Z,20.06
2018-05-12T17:12:48.203Z,20.28
2018-05-12T17:15:16.275Z,19.93
2018-05-12T17:17:44.336Z,19.58
2018-05-12T17:20:12.411Z,19.04
2018-05-12T17:22:40.519Z,19.61
2018-05-12T17:25:08.584Z,20.28
2018-05-12T17:27:36.622Z,20.36
2018-05-12T17:30:04.710Z,20.36
2018-05-12T17:32:32.922Z,20.02
2018-05-12T17:35:00.982Z,20.03
2018-05-12T17:37:29.096Z,19.72
2018-05-12T17:39:57.186Z,19.06
2018-05-12T17:42:25.283Z,19.10
2018-05-12T17:44:53.445Z,19.28
2018-05-12T17:47:21.588Z,18.69
2018-05-12T17:49:49.583Z,18.67
2018-05-12T17:52:17.554Z,18.66
2018-05-12T17:54:45.625Z,19.15
2018-05-12T17:57:14.202Z,19.09
2018-05-12T17:59:42.317Z,19.46
2018-05-12T18:02:10.327Z,19.81
2018-05-12T18:04:38.363Z,19.47
2018-05-12T18:07:06.382Z,19.50
2018-05-12T18:09:34.494Z,19.28
2018-05-12T18:12:02.630Z,19.77
2018-05-12T18:14:30.710Z,20.11
2018-05-12T18:16:58.773Z,20.04
2018-05-12T18:19:26.767Z,19.97
2018-05-12T18:21:54.786Z,20.06
2018-05-12T18:24:22.858Z,20.17
2018-05-12T18:26:50.862Z,20.17
2018-05-12T18:29:18.923Z,20.09
2018-05-12T18:31:46.961Z,19.89
2018-05-12T18:34:15.115Z,19.36
2018-05-12T18:36:43.133Z,19.34
2018-05-12T18:39:11.142Z,19.01
2018-05-12T18:41:39.247Z,19.04
2018-05-12T18:44:07.292Z,19.28
2018-05-12T18:46:35.291Z,19.35
2018-05-12T18:49:03.315Z,18.58
2018-05-12T18:51:31.348Z,18.86
2018-05-12T18:53:59.341Z,18.73
2018-05-12T18:56:27.355Z,18.98
2018-05-12T18:58:55.918Z,18.24
2018-05-12T19:01:23.971Z,17.37
2018-05-12T19:03:51.968Z,17.67
2018-05-12T19:06:19.957Z,18.02
2018-05-12T19:08:48.017Z,17.86
2018-05-12T19:11:16.010Z,18.53
2018-05-12T19:13:44.063Z,18.33
2018-05-12T19:16:12.083Z,17.75
2018-05-12T19:18:40.118Z,17.38
2018-05-12T19:21:08.111Z,17.89
2018-05-12T19:23:36.184Z,18.54
2018-05-12T19:26:04.222Z,18.43
2018-05-12T19:28:32.287Z,18.75
2018-05-12T19:31:00.342Z,18.54
2018-05-12T19:33:28.383Z,18.68
2018-05-12T19:35:56.427Z,18.48
2018-05-12T19:38:24.456Z,17.79
2018-05-12T19:40:52.483Z,17.61
2018-05-12T19:43:20.528Z,18.16
2018-05-12T19:45:48.553Z,18.59
2018-05-12T19:48:16.595Z,18.58
2018-05-12T19:50:44.628Z,18.70
2018-05-12T19:53:12.613Z,18.15
2018-05-12T19:55:40.655Z,17.75
2018-05-12T19:58:08.696Z,17.78
2018-05-12T20:00:36.868Z,18.27
2018-05-12T20:03:04.909Z,18.52
2018-05-12T20:05:32.897Z,17.84
2018-05-12T20:08:00.971Z,18.00
2018-05-12T20:10:28.970Z,17.91
2018-05-12T20:12:57.008Z,18.09
2018-05-12T20:15:25.099Z,17.26
2018-05-12T20:17:53.079Z,17.69
2018-05-12T20:20:21.243Z,16.99
2018-05-12T20:22:49.309Z,16.38
2018-05-12T20:25:17.281Z,16.14
2018-05-12T20:27:45.277Z,16.45
2018-05-12T20:30:13.373Z,15.89
2018-05-12T20:32:41.456Z,16.45
2018-05-12T20:35:09.579Z,17.19
2018-05-12T20:37:37.946Z,17.25
2018-05-12T20:40:06.018Z,17.16
2018-05-12T20:42:34.102Z,16.87
2018-05-12T20:45:02.143Z,16.36
2018-05-12T20:47:30.156Z,16.86
2018-05-12T20:49:58.191Z,16.21
2018-05-12T20:52:26.190Z,16.24
2018-05-12T20:54:54.203Z,16.48
2018-05-12T20:57:22.219Z,16.48
2018-05-12T20:59:50.230Z,16.48
2018-05-12T21:02:18.422Z,16.96
2018-05-12T21:04:46.396Z,16.67
2018-05-12T21:07:14.428Z,15.99
2018-05-12T21:09:42.606Z,16.41
2018-05-12T21:12:10.600Z,16.89
2018-05-12T21:14:38.619Z,17.26
2018-05-12T21:17:06.666Z,17.34
2018-05-12T21:19:34.779Z,17.44
2018-05-12T21:22:02.821Z,17.52
2018-05-12T21:24:30.860Z,16.92
2018-05-12T21:26:58.957Z,16.45
2018-05-12T21:29:27.068Z,16.08
2018-05-12T21:31:55.114Z,16.52
2018-05-12T21:34:23.198Z,16.90
2018-05-12T21:36:51.175Z,17.15
2018-05-12T21:39:19.208Z,17.23
2018-05-12T21:41:47.278Z,17.31
2018-05-12T21:44:15.407Z,17.37
2018-05-12T21:46:43.370Z,17.48
2018-05-12T21:49:11.395Z,17.58
2018-05-12T21:51:39.414Z,17.62
2018-05-12T21:54:07.335Z,17.47
2018-05-12T21:56:35.364Z,17.53
2018-05-12T21:59:03.448Z,17.10
2018-05-12T22:01:31.427Z,17.27
2018-05-12T22:03:59.675Z,17.28
2018-05-12T22:06:27.695Z,17.40
2018-05-12T22:08:55.760Z,17.40
2018-05-12T22:11:23.743Z,17.13
2018-05-12T22:13:51.702Z,17.50
2018-05-12T22:16:19.695Z,17.38
2018-05-12T22:18:47.723Z,17.29
2018-05-12T22:21:15.627Z,17.18
2018-05-12T22:23:43.585Z,16.69
2018-05-12T22:26:11.603Z,16.34
2018-05-12T22:28:39.579Z,16.09
2018-05-12T22:31:07.597Z,16.30
2018-05-12T22:33:35.576Z,16.62
2018-05-12T22:36:03.587Z,16.81
2018-05-12T22:38:31.591Z,17.03
2018-05-12T22:40:59.608Z,17.07
2018-05-12T22:43:27.621Z,17.10
2018-05-12T22:45:55.634Z,17.34
2018-05-12T22:48:23.598Z,17.43
2018-05-12T22:50:51.650Z,17.59
2018-05-12T22:53:19.726Z,17.61
2018-05-12T22:55:47.734Z,17.33
2018-05-12T22:58:15.732Z,17.43
2018-05-12T23:00:43.785Z,17.37
2018-05-12T23:03:11.779Z,17.61
2018-05-12T23:05:40.022Z,17.58
2018-05-12T23:08:08.084Z,17.59
2018-05-12T23:10:36.050Z,16.95
2018-05-12T23:13:04.086Z,15.92
2018-05-12T23:15:32.134Z,15.84
2018-05-12T23:18:00.153Z,16.04
2018-05-12T23:20:28.194Z,16.44
2018-05-12T23:22:56.220Z,16.65
2018-05-12T23:25:24.285Z,16.61
2018-05-12T23:27:52.277Z,16.58
2018-05-12T23:30:20.302Z,16.76
2018-05-12T23:32:48.451Z,17.14
2018-05-12T23:35:16.457Z,17.30
2018-05-12T23:37:44.459Z,17.35
2018-05-12T23:40:12.435Z,17.38
2018-05-12T23:42:40.502Z,17.53
2018-05-12T23:45:08.567Z,17.50
2018-05-12T23:47:36.577Z,17.58
2018-05-12T23:50:04.587Z,17.62
2018-05-12T23:52:32.629Z,17.60
2018-05-12T23:55:00.638Z,17.43
2018-05-12T23:57:28.666Z,17.07
2018-05-12T23:59:56.774Z,16.91
